createdAt,value
2019-01-16T00:02:31.000Z,7.37
2019-01-16T00:05:07.814Z,10.07
2019-01-16T00:07:50.488Z,9.30
2019-01-16T00:10:20.791Z,8.07
2019-01-16T00:12:53.943Z,8.53
2019-01-16T00:15:27.378Z,7.50
2019-01-16T00:18:03.865Z,7.07
2019-01-16T00:20:40.437Z,7.20
2019-01-16T00:23:10.865Z,10.13
2019-01-16T00:25:57.469Z,9.80
2019-01-16T00:28:30.968Z,8.63
2019-01-16T00:31:16.854Z,7.23
2019-01-16T00:33:52.912Z,9.07
2019-01-16T00:36:26.309Z,8.20
2019-01-16T00:39:12.812Z,7.03
2019-01-16T00:41:43.182Z,7.03
2019-01-16T00:44:13.566Z,7.93
2019-01-16T00:46:46.959Z,8.87
2019-01-16T00:49:29.877Z,8.77
2019-01-16T00:52:09.266Z,11.03
2019-01-16T00:54:39.972Z,8.07
2019-01-16T00:57:10.476Z,6.47
2019-01-16T00:59:50.016Z,9.87
2019-01-16T01:02:23.185Z,7.77
2019-01-16T01:04:53.631Z,7.50
2019-01-16T01:07:36.044Z,7.10
2019-01-16T01:10:25.824Z,6.80
2019-01-16T01:13:08.549Z,8.13
2019-01-16T01:15:38.993Z,7.27
2019-01-16T01:18:09.495Z,8.90
2019-01-16T01:20:42.988Z,8.40
2019-01-16T01:23:31.949Z,9.57
2019-01-16T01:26:20.705Z,6.53
2019-01-16T01:29:06.191Z,8.50
2019-01-16T01:31:48.645Z,9.00
2019-01-16T01:34:28.541Z,10.10
2019-01-16T01:37:01.834Z,7.67
2019-01-16T01:39:38.360Z,6.87
2019-01-16T01:42:11.605Z,9.20
2019-01-16T01:44:58.307Z,8.60
2019-01-16T01:47:41.022Z,7.40
2019-01-16T01:50:11.590Z,10.17
2019-01-16T01:52:57.234Z,7.07
2019-01-16T01:55:33.704Z,8.07
2019-01-16T01:58:07.300Z,7.83
2019-01-16T02:00:53.191Z,9.83
2019-01-16T02:03:23.516Z,7.63
2019-01-16T02:05:53.839Z,8.27
2019-01-16T02:08:24.298Z,9.97
2019-01-16T02:11:06.979Z,8.27
2019-01-16T02:13:40.046Z,9.00
2019-01-16T02:16:10.410Z,8.10
2019-01-16T02:18:55.955Z,7.70
2019-01-16T02:21:35.411Z,9.73
2019-01-16T02:24:17.715Z,7.93
2019-01-16T02:26:48.020Z,10.80
2019-01-16T02:29:21.332Z,6.83
2019-01-16T02:31:51.658Z,9.07
2019-01-16T02:34:21.981Z,7.20
2019-01-16T02:36:52.512Z,6.33
2019-01-16T02:39:39.011Z,6.30
2019-01-16T02:42:18.413Z,5.30
2019-01-16T02:45:04.953Z,7.13
2019-01-16T02:47:41.226Z,6.90
2019-01-16T02:50:11.655Z,7.27
2019-01-16T02:52:48.010Z,5.80
2019-01-16T02:55:27.556Z,8.87
2019-01-16T02:58:13.640Z,8.60
2019-01-16T03:00:44.173Z,6.73
2019-01-16T03:03:30.162Z,7.67
2019-01-16T03:06:03.561Z,10.83
2019-01-16T03:08:49.244Z,8.77
2019-01-16T03:11:22.642Z,7.53
2019-01-16T03:13:53.066Z,7.27
2019-01-16T03:16:26.562Z,9.53
2019-01-16T03:19:09.382Z,9.47
2019-01-16T03:21:57.899Z,10.80
2019-01-16T03:24:37.189Z,7.57
2019-01-16T03:27:19.676Z,8.27
2019-01-16T03:29:49.980Z,7.70
2019-01-16T03:32:20.337Z,8.67
2019-01-16T03:34:59.727Z,6.40
2019-01-16T03:37:33.255Z,5.00
2019-01-16T03:40:19.046Z,6.33
2019-01-16T03:42:49.373Z,9.00
2019-01-16T03:45:26.045Z,6.77
2019-01-16T03:48:05.590Z,9.33
2019-01-16T03:50:35.954Z,7.70
2019-01-16T03:53:18.604Z,5.57
2019-01-16T03:55:57.989Z,6.47
2019-01-16T03:58:37.179Z,8.07
2019-01-16T04:01:07.723Z,9.67
2019-01-16T04:03:49.940Z,7.23
2019-01-16T04:06:20.347Z,6.93
2019-01-16T04:09:07.166Z,4.73
2019-01-16T04:11:37.594Z,6.57
2019-01-16T04:14:24.479Z,5.83
2019-01-16T04:17:10.180Z,7.57
2019-01-16T04:19:46.657Z,6.37
2019-01-16T04:22:29.158Z,5.00
2019-01-16T04:24:59.586Z,7.30
2019-01-16T04:27:48.467Z,6.70
2019-01-16T04:30:33.928Z,6.47
2019-01-16T04:33:20.950Z,8.17
2019-01-16T04:35:51.270Z,7.00
2019-01-16T04:38:34.086Z,6.57
2019-01-16T04:41:04.404Z,6.93
2019-01-16T04:43:40.983Z,6.83
2019-01-16T04:46:11.404Z,8.43
2019-01-16T04:48:43.056Z,7.17
2019-01-16T04:51:19.566Z,9.83
2019-01-16T04:53:56.196Z,7.63
2019-01-16T04:56:43.113Z,8.33
2019-01-16T04:59:25.739Z,8.60
2019-01-16T05:01:56.364Z,9.07
2019-01-16T05:04:32.718Z,10.03
2019-01-16T05:07:03.555Z,8.03
2019-01-16T05:09:39.721Z,7.23
2019-01-16T05:12:10.140Z,7.90
2019-01-16T05:14:46.295Z,9.77
2019-01-16T05:17:19.686Z,9.00
2019-01-16T05:19:53.300Z,9.50
2019-01-16T05:22:29.766Z,9.53
2019-01-16T05:25:15.249Z,10.80
2019-01-16T05:27:45.777Z,7.00
2019-01-16T05:30:19.175Z,10.40
2019-01-16T05:32:49.604Z,7.97
2019-01-16T05:35:36.208Z,10.57
2019-01-16T05:38:23.128Z,9.53
2019-01-16T05:41:10.338Z,11.07
2019-01-16T05:43:58.784Z,8.07
2019-01-16T05:46:44.366Z,11.60
2019-01-16T05:49:33.444Z,12.93
2019-01-16T05:52:03.814Z,7.77
2019-01-16T05:54:36.960Z,10.40
2019-01-16T05:57:10.245Z,14.27
2019-01-16T05:59:46.787Z,9.83
2019-01-16T06:02:33.944Z,10.93
2019-01-16T06:05:07.262Z,11.53
2019-01-16T06:07:40.413Z,12.93
2019-01-16T06:10:14.935Z,8.57
2019-01-16T06:12:57.239Z,8.73
2019-01-16T06:15:30.340Z,10.07
2019-01-16T06:18:03.826Z,7.50
2019-01-16T06:20:46.306Z,8.43
2019-01-16T06:23:17.065Z,10.63
2019-01-16T06:25:50.476Z,12.00
2019-01-16T06:28:37.484Z,11.20
2019-01-16T06:31:10.570Z,10.23
2019-01-16T06:33:47.449Z,7.37
2019-01-16T06:36:17.758Z,12.07
2019-01-16T06:39:04.785Z,14.30
2019-01-16T06:41:38.248Z,12.80
2019-01-16T06:44:17.880Z,9.20
2019-01-16T06:46:54.442Z,10.93
2019-01-16T06:49:24.824Z,9.77
2019-01-16T06:52:07.539Z,11.50
2019-01-16T06:54:41.470Z,9.37
2019-01-16T06:57:23.850Z,11.07
2019-01-16T06:59:56.927Z,15.60
2019-01-16T07:02:33.722Z,13.00
2019-01-16T07:05:10.081Z,15.87
2019-01-16T07:07:43.373Z,11.17
2019-01-16T07:10:30.495Z,17.03
2019-01-16T07:13:03.783Z,14.73
2019-01-16T07:15:46.909Z,13.00
2019-01-16T07:18:29.635Z,10.93
2019-01-16T07:21:06.195Z,12.60
2019-01-16T07:23:52.901Z,10.10
2019-01-16T07:26:26.377Z,11.23
2019-01-16T07:28:59.426Z,13.97
2019-01-16T07:31:46.631Z,11.53
2019-01-16T07:34:19.807Z,12.90
2019-01-16T07:36:50.229Z,10.60
2019-01-16T07:39:20.651Z,9.07
2019-01-16T07:41:57.119Z,12.30
2019-01-16T07:44:27.548Z,10.80
2019-01-16T07:47:13.036Z,8.97
2019-01-16T07:49:59.838Z,7.47
2019-01-16T07:52:42.241Z,6.77
2019-01-16T07:55:18.726Z,7.90
2019-01-16T07:57:49.035Z,9.17
2019-01-16T08:00:37.917Z,12.47
2019-01-16T08:03:08.216Z,8.27
2019-01-16T08:05:38.541Z,13.07
2019-01-16T08:08:25.351Z,12.23
2019-01-16T08:11:12.373Z,10.40
2019-01-16T08:13:42.755Z,11.63
2019-01-16T08:16:13.275Z,9.37
2019-01-16T08:18:55.989Z,11.77
2019-01-16T08:21:32.346Z,7.37
2019-01-16T08:24:19.316Z,8.97
2019-01-16T08:26:52.813Z,9.00
2019-01-16T08:29:29.484Z,8.47
2019-01-16T08:31:59.814Z,5.53
2019-01-16T08:37:18.073Z,9.40
2019-01-16T08:40:04.990Z,10.97
2019-01-16T08:42:35.310Z,7.67
2019-01-16T08:45:10.368Z,10.73
2019-01-16T08:47:46.611Z,9.27
2019-01-16T08:50:33.733Z,9.80
2019-01-16T08:53:04.050Z,9.73
2019-01-16T08:55:37.548Z,9.50
2019-01-16T08:58:14.293Z,7.70
2019-01-16T09:00:50.298Z,5.80
2019-01-16T09:03:20.704Z,7.67
2019-01-16T09:05:51.131Z,8.13
2019-01-16T09:08:27.045Z,8.80
2019-01-16T09:11:03.449Z,6.73
2019-01-16T09:13:33.796Z,5.90
2019-01-16T09:16:16.079Z,7.10
2019-01-16T09:18:49.272Z,8.17
2019-01-16T09:21:19.579Z,9.93
2019-01-16T09:23:49.919Z,8.33
2019-01-16T09:26:20.347Z,12.90
2019-01-16T09:28:50.642Z,8.23
2019-01-16T09:31:36.146Z,6.17
2019-01-16T09:34:23.064Z,6.57
2019-01-16T09:37:02.499Z,6.60
2019-01-16T09:39:44.991Z,7.13
2019-01-16T09:42:18.303Z,5.87
2019-01-16T09:44:48.627Z,5.60
2019-01-16T09:47:24.895Z,7.13
2019-01-16T09:50:04.371Z,7.23
2019-01-16T09:52:44.094Z,8.20
2019-01-16T09:55:23.247Z,6.03
2019-01-16T09:57:53.730Z,8.07
2019-01-16T10:00:36.344Z,7.83
2019-01-16T10:03:23.362Z,8.63
2019-01-16T10:06:02.487Z,6.37
2019-01-16T10:08:36.096Z,7.80
2019-01-16T10:11:12.353Z,5.77
2019-01-16T10:13:46.056Z,6.13
2019-01-16T10:16:32.971Z,6.57
2019-01-16T10:19:12.817Z,7.03
2019-01-16T10:21:43.144Z,7.70
2019-01-16T10:24:13.469Z,7.13
2019-01-16T10:26:46.975Z,8.50
2019-01-16T10:29:20.360Z,8.83
2019-01-16T10:32:02.604Z,11.60
2019-01-16T10:34:35.645Z,7.87
2019-01-16T10:37:06.045Z,7.30
2019-01-16T10:39:36.403Z,6.83
2019-01-16T10:42:06.728Z,5.23
2019-01-16T10:44:40.127Z,8.83
2019-01-16T10:47:23.042Z,6.23
2019-01-16T10:49:53.337Z,7.63
2019-01-16T10:52:29.936Z,7.67
2019-01-16T10:55:09.393Z,7.53
2019-01-16T10:57:39.904Z,6.73
2019-01-16T11:00:13.208Z,7.23
2019-01-16T11:02:46.694Z,7.43
2019-01-16T11:05:33.299Z,7.00
2019-01-16T11:08:03.647Z,6.47
2019-01-16T11:10:49.102Z,6.33
2019-01-16T11:13:37.636Z,6.33
2019-01-16T11:16:10.846Z,8.33
2019-01-16T11:18:41.154Z,5.90
2019-01-16T11:21:11.613Z,6.43
2019-01-16T11:23:58.125Z,9.40
2019-01-16T11:26:40.407Z,6.20
2019-01-16T11:29:22.749Z,7.70
2019-01-16T11:31:59.385Z,7.37
2019-01-16T11:34:44.861Z,6.80
2019-01-16T11:37:18.067Z,6.20
2019-01-16T11:40:04.459Z,6.07
2019-01-16T11:42:32.733Z,8.70
2019-01-16T11:45:21.463Z,9.00
2019-01-16T11:47:51.885Z,5.43
2019-01-16T11:50:38.829Z,10.63
2019-01-16T11:53:18.353Z,7.83
2019-01-16T11:56:04.875Z,9.37
2019-01-16T11:58:35.303Z,14.10
2019-01-16T12:01:24.569Z,11.93
2019-01-16T12:04:01.146Z,10.27
2019-01-16T12:06:31.452Z,9.80
2019-01-16T12:09:17.451Z,10.40
2019-01-16T12:11:50.541Z,9.47
2019-01-16T12:14:20.836Z,6.77
2019-01-16T12:17:07.490Z,9.33
2019-01-16T12:19:37.898Z,9.60
2019-01-16T12:22:08.220Z,6.80
2019-01-16T12:24:38.645Z,6.90
2019-01-16T12:27:10.417Z,6.90
2019-01-16T12:29:40.720Z,9.60
2019-01-16T12:32:27.538Z,12.30
2019-01-16T12:35:13.200Z,7.70
2019-01-16T12:37:43.547Z,7.80
2019-01-16T12:40:16.741Z,9.13
2019-01-16T12:42:47.059Z,12.07
2019-01-16T12:45:20.460Z,8.03
2019-01-16T12:48:09.012Z,11.57
2019-01-16T12:50:39.433Z,9.67
2019-01-16T12:53:18.771Z,10.60
2019-01-16T12:55:58.516Z,10.63
2019-01-16T12:58:34.779Z,12.67
2019-01-16T13:01:21.591Z,17.17
2019-01-16T13:04:01.130Z,11.70
2019-01-16T13:06:34.633Z,12.47
2019-01-16T13:09:21.588Z,12.10
2019-01-16T13:11:54.733Z,9.37
2019-01-16T13:14:33.865Z,14.47
2019-01-16T13:17:16.866Z,12.03
2019-01-16T13:19:47.209Z,14.10
2019-01-16T13:22:23.912Z,10.83
2019-01-16T13:24:54.310Z,14.70
2019-01-16T13:27:24.736Z,17.23
2019-01-16T13:30:07.208Z,13.27
2019-01-16T13:32:40.540Z,15.77
2019-01-16T13:35:20.078Z,17.23
2019-01-16T13:38:05.866Z,15.00
2019-01-16T13:40:42.699Z,15.93
2019-01-16T13:43:15.976Z,17.43
2019-01-16T13:45:49.251Z,17.83
2019-01-16T13:48:22.627Z,14.90
2019-01-16T13:50:52.949Z,15.73
2019-01-16T13:53:23.806Z,16.57
2019-01-16T13:55:54.211Z,13.77
2019-01-16T13:58:36.928Z,16.90
2019-01-16T14:01:07.458Z,24.20
2019-01-16T14:03:54.164Z,14.00
2019-01-16T14:06:33.806Z,13.80
2019-01-16T14:09:04.443Z,18.40
2019-01-16T14:11:40.762Z,12.33
2019-01-16T14:14:17.285Z,18.53
2019-01-16T14:16:59.596Z,19.50
2019-01-16T14:19:42.760Z,13.47
2019-01-16T14:22:18.992Z,13.87
2019-01-16T14:25:01.538Z,17.00
2019-01-16T14:27:48.387Z,20.13
2019-01-16T14:30:26.800Z,16.77
2019-01-16T14:33:12.178Z,9.57
2019-01-16T14:35:45.164Z,8.57
2019-01-16T14:38:18.251Z,8.30
2019-01-16T14:40:48.665Z,10.33
2019-01-16T14:43:34.337Z,12.27
2019-01-16T14:46:04.788Z,7.30
2019-01-16T14:48:35.113Z,7.27
2019-01-16T14:51:22.130Z,10.63
2019-01-16T14:53:52.451Z,8.73
2019-01-16T14:56:26.051Z,7.27
2019-01-16T14:59:05.793Z,7.30
2019-01-16T15:01:38.986Z,5.77
2019-01-16T15:04:09.416Z,8.13
2019-01-16T15:06:39.841Z,10.80
2019-01-16T15:09:15.387Z,10.67
2019-01-16T15:11:55.032Z,10.33
2019-01-16T15:14:28.123Z,10.57
2019-01-16T15:17:15.084Z,15.63
2019-01-16T15:19:54.574Z,13.77
2019-01-16T15:22:34.335Z,15.53
2019-01-16T15:25:07.579Z,10.37
2019-01-16T15:27:40.918Z,11.17
2019-01-16T15:30:29.199Z,12.20
2019-01-16T15:32:59.625Z,11.90
2019-01-16T15:35:35.752Z,15.50
2019-01-16T15:38:15.571Z,16.50
2019-01-16T15:40:51.955Z,19.23
2019-01-16T15:43:28.554Z,23.13
2019-01-16T15:46:04.625Z,19.30
2019-01-16T15:48:35.007Z,22.00
2019-01-16T15:51:21.583Z,22.33
2019-01-16T15:54:01.055Z,21.23
2019-01-16T15:56:47.657Z,20.33
2019-01-16T15:59:23.938Z,19.27
2019-01-16T16:02:06.678Z,24.63
2019-01-16T16:04:46.377Z,20.63
2019-01-16T16:07:28.580Z,21.10
2019-01-16T16:10:01.872Z,32.07
2019-01-16T16:12:48.660Z,23.10
2019-01-16T16:15:35.702Z,36.07
2019-01-16T16:18:22.119Z,26.50
2019-01-16T16:20:58.207Z,25.77
2019-01-16T16:23:43.948Z,25.83
2019-01-16T16:26:17.444Z,29.67
2019-01-16T16:28:47.748Z,27.13
2019-01-16T16:31:18.094Z,30.50
2019-01-16T16:33:57.615Z,25.53
2019-01-16T16:36:30.928Z,26.23
2019-01-16T16:39:04.431Z,17.77
2019-01-16T16:41:50.319Z,20.50
2019-01-16T16:44:20.822Z,25.17
2019-01-16T16:47:07.552Z,21.30
2019-01-16T16:49:37.914Z,14.63
2019-01-16T16:52:26.327Z,17.23
2019-01-16T16:54:56.956Z,17.87
2019-01-16T16:57:42.441Z,10.73
2019-01-16T17:00:30.779Z,10.83
2019-01-16T17:03:17.287Z,25.67
2019-01-16T17:06:04.195Z,16.87
2019-01-16T17:08:46.641Z,13.37
2019-01-16T17:11:32.597Z,13.37
2019-01-16T17:14:05.511Z,11.30
2019-01-16T17:16:41.890Z,20.60
2019-01-16T17:19:28.471Z,16.93
2019-01-16T17:22:14.882Z,17.33
2019-01-16T17:25:01.665Z,34.97
2019-01-16T17:27:48.323Z,41.53
2019-01-16T17:30:21.770Z,26.60
2019-01-16T17:33:08.685Z,34.13
2019-01-16T17:35:45.048Z,32.77
2019-01-16T17:38:21.723Z,19.60
2019-01-16T17:40:52.149Z,28.17
2019-01-16T17:43:39.266Z,34.77
2019-01-16T17:46:26.292Z,26.77
2019-01-16T17:48:56.909Z,19.23
2019-01-16T17:51:42.287Z,20.80
2019-01-16T17:54:29.200Z,18.73
2019-01-16T17:57:15.860Z,16.37
2019-01-16T17:59:46.331Z,14.63
2019-01-16T18:02:22.910Z,20.90
2019-01-16T18:05:02.654Z,11.30
2019-01-16T18:07:39.116Z,7.90
2019-01-16T18:10:12.103Z,15.03
2019-01-16T18:12:45.508Z,12.27
2019-01-16T18:15:19.406Z,14.47
2019-01-16T18:17:49.713Z,14.53
2019-01-16T18:20:20.158Z,13.07
2019-01-16T18:23:07.274Z,14.43
2019-01-16T18:25:53.061Z,12.00
2019-01-16T18:28:29.632Z,9.73
2019-01-16T18:31:00.059Z,9.97
2019-01-16T18:33:36.732Z,11.00
2019-01-16T18:36:07.259Z,7.57
2019-01-16T18:38:54.581Z,8.93
2019-01-16T18:41:31.049Z,9.67
2019-01-16T18:44:20.174Z,11.03
2019-01-16T18:46:50.478Z,8.90
2019-01-16T18:49:28.053Z,8.17
2019-01-16T18:52:24.307Z,7.00
2019-01-16T18:55:16.097Z,8.37
2019-01-16T18:57:57.563Z,9.57
2019-01-16T19:00:37.057Z,9.40
2019-01-16T19:03:10.321Z,9.40
2019-01-16T19:05:46.161Z,7.97
2019-01-16T19:08:21.750Z,12.70
2019-01-16T19:10:57.970Z,12.47
2019-01-16T19:13:56.679Z,11.50
2019-01-16T19:16:30.061Z,17.57
2019-01-16T19:19:17.112Z,10.10
2019-01-16T19:21:53.131Z,13.60
2019-01-16T19:24:26.264Z,11.00
2019-01-16T19:26:56.858Z,10.60
2019-01-16T19:29:36.495Z,8.83
2019-01-16T19:32:19.208Z,7.13
2019-01-16T19:35:06.124Z,8.37
2019-01-16T19:37:42.595Z,9.87
2019-01-16T19:40:20.232Z,10.93
2019-01-16T19:42:50.918Z,11.30
2019-01-16T19:45:27.091Z,12.77
2019-01-16T19:48:14.913Z,11.67
2019-01-16T19:51:00.292Z,11.23
2019-01-16T19:53:40.450Z,6.47
2019-01-16T19:56:33.193Z,7.43
2019-01-16T19:59:11.962Z,6.87
2019-01-16T20:01:42.340Z,8.10
2019-01-16T20:04:29.309Z,7.10
2019-01-16T20:07:02.650Z,5.10
2019-01-16T20:09:32.975Z,6.73
2019-01-16T20:12:03.406Z,7.67
2019-01-16T20:14:33.830Z,6.17
2019-01-16T20:17:04.156Z,5.20
2019-01-16T20:19:43.385Z,6.10
2019-01-16T20:22:29.837Z,7.73
2019-01-16T20:25:09.282Z,8.67
2019-01-16T20:27:57.881Z,8.27
2019-01-16T20:30:40.897Z,9.10
2019-01-16T20:33:17.061Z,10.13
2019-01-16T20:35:53.222Z,8.40
2019-01-16T20:38:23.544Z,12.30
2019-01-16T20:41:03.088Z,10.13
2019-01-16T20:43:33.549Z,8.63
2019-01-16T20:46:16.447Z,7.73
2019-01-16T20:48:46.857Z,8.07
2019-01-16T20:51:32.175Z,8.17
2019-01-16T20:54:05.320Z,7.23
2019-01-16T20:56:44.777Z,10.23
2019-01-16T20:59:15.186Z,8.63
2019-01-16T21:02:03.844Z,8.63
2019-01-16T21:04:43.496Z,7.63
2019-01-16T21:07:19.988Z,7.70
2019-01-16T21:09:59.285Z,8.60
2019-01-16T21:12:32.580Z,9.67
2019-01-16T21:15:21.102Z,8.73
2019-01-16T21:17:54.731Z,6.47
2019-01-16T21:20:37.148Z,8.17
2019-01-16T21:23:13.339Z,11.43
2019-01-16T21:25:58.784Z,7.73
2019-01-16T21:28:45.486Z,10.13
2019-01-16T21:31:21.753Z,9.33
2019-01-16T21:33:58.039Z,10.97
2019-01-16T21:36:34.479Z,9.03
2019-01-16T21:39:04.999Z,7.83
2019-01-16T21:41:41.580Z,9.07
2019-01-16T21:44:23.986Z,6.03
2019-01-16T21:46:54.303Z,7.83
2019-01-16T21:49:41.183Z,8.27
2019-01-16T21:52:26.708Z,6.47
2019-01-16T21:55:06.143Z,8.17
2019-01-16T21:57:53.053Z,7.53
2019-01-16T22:00:35.671Z,7.27
2019-01-16T22:03:21.243Z,7.03
2019-01-16T22:05:57.544Z,6.83
2019-01-16T22:08:33.986Z,6.13
2019-01-16T22:11:10.447Z,9.50
2019-01-16T22:13:52.921Z,8.20
2019-01-16T22:16:26.459Z,12.57
2019-01-16T22:18:56.884Z,7.43
2019-01-16T22:21:27.195Z,13.10
2019-01-16T22:24:15.758Z,10.73
2019-01-16T22:26:46.081Z,10.43
2019-01-16T22:29:16.406Z,9.50
2019-01-16T22:31:49.956Z,9.50
2019-01-16T22:34:32.312Z,9.17
2019-01-16T22:37:02.736Z,9.03
2019-01-16T22:39:39.207Z,6.37
2019-01-16T22:42:25.980Z,5.87
2019-01-16T22:45:12.850Z,9.57
2019-01-16T22:47:59.834Z,11.63
2019-01-16T22:50:33.095Z,8.20
2019-01-16T22:53:03.462Z,7.77
2019-01-16T22:55:39.931Z,12.40
2019-01-16T22:58:12.947Z,7.93
2019-01-16T23:01:00.952Z,9.67
2019-01-16T23:03:47.562Z,7.57
2019-01-16T23:06:36.011Z,6.67
2019-01-16T23:09:10.941Z,7.37
2019-01-16T23:11:44.542Z,6.20
2019-01-16T23:14:17.836Z,9.50
2019-01-16T23:16:54.406Z,8.17
2019-01-16T23:19:24.727Z,6.23
2019-01-16T23:22:11.746Z,7.57
2019-01-16T23:24:54.360Z,6.27
2019-01-16T23:27:34.000Z,8.90
2019-01-16T23:30:10.264Z,8.77
2019-01-16T23:32:43.353Z,6.53
2019-01-16T23:35:19.512Z,6.00
2019-01-16T23:38:05.609Z,5.93
2019-01-16T23:40:35.930Z,5.87
2019-01-16T23:43:09.170Z,5.70
2019-01-16T23:45:42.416Z,8.50
2019-01-16T23:48:15.607Z,8.03
2019-01-16T23:50:57.812Z,8.40
2019-01-16T23:53:37.097Z,6.67
2019-01-16T23:56:07.677Z,8.93
2019-01-16T23:58:56.633Z,7.00
